Time;durP1;ratioP1;P1;durP2;ratioP2;P2;SDS_P1;SDS_P2;PMS_P1;PMS_P2;Temp;Humidity;BMP_temperature;BMP_pressure;BME280_temperature;BME280_humidity;BME280_pressure;Samples;Min_cycle;Max_cycle;Signal;HPM_P1;HPM_P2
2024/02/24 00:01:43;;;;;;;32.33;31.13;;;21.80;55.00;;;;;;5095471;28;20492;-66
2024/02/24 00:04:09;;;;;;;33.13;31.83;;;21.80;55.10;;;;;;5095488;28;20442;-67
2024/02/24 00:06:37;;;;;;;32.10;30.90;;;21.80;55.10;;;;;;5095598;28;20446;-66
2024/02/24 00:09:05;;;;;;;32.27;31.07;;;21.80;55.10;;;;;;5099096;28;20473;-69
2024/02/24 00:11:31;;;;;;;31.90;30.70;;;21.70;55.00;;;;;;5098070;28;20979;-68
2024/02/24 00:13:58;;;;;;;33.30;32.00;;;21.70;55.10;;;;;;5098118;28;20442;-69
2024/02/24 00:16:25;;;;;;;33.07;31.77;;;21.70;55.00;;;;;;5097974;28;20442;-67
2024/02/24 00:18:55;;;;;;;32.10;30.80;;;21.70;55.00;;;;;;5090387;28;20443;-65
2024/02/24 00:21:22;;;;;;;32.30;31.10;;;21.70;55.00;;;;;;5076891;28;20487;-68
2024/02/24 00:23:50;;;;;;;32.97;31.70;;;21.60;54.90;;;;;;5076343;28;20450;-68
2024/02/24 00:26:16;;;;;;;33.00;31.80;;;21.60;54.90;;;;;;5076150;28;20878;-68
2024/02/24 00:28:43;;;;;;;33.80;32.60;;;21.60;54.90;;;;;;5075877;28;20447;-67
2024/02/24 00:31:10;;;;;;;34.00;32.80;;;21.60;54.90;;;;;;5075592;28;20455;-68
2024/02/24 00:33:38;;;;;;;33.07;31.87;;;21.60;55.00;;;;;;5076558;28;20466;-68
2024/02/24 00:36:05;;;;;;;32.10;30.90;;;21.60;55.10;;;;;;5077369;28;20443;-68
2024/02/24 00:38:32;;;;;;;32.03;30.80;;;21.50;54.90;;;;;;5077039;28;20439;-67
2024/02/24 00:41:00;;;;;;;32.30;31.10;;;21.50;54.90;;;;;;5076049;28;20486;-68
2024/02/24 00:43:26;;;;;;;30.33;29.23;;;21.50;54.90;;;;;;5075436;28;20439;-68
2024/02/24 00:45:53;;;;;;;32.30;31.00;;;21.50;54.90;;;;;;5075567;28;20447;-68
2024/02/24 00:48:20;;;;;;;30.30;29.00;;;21.50;55.50;;;;;;5075912;28;20451;-67
2024/02/24 00:50:46;;;;;;;31.63;30.47;;;21.50;54.90;;;;;;5075029;28;20459;-69
2024/02/24 00:53:13;;;;;;;31.17;30.07;;;21.50;55.00;;;;;;5075872;28;20447;-68
2024/02/24 00:55:40;;;;;;;30.37;29.17;;;21.40;55.00;;;;;;5076226;28;20446;-66
2024/02/24 00:58:08;;;;;;;31.77;30.60;;;21.40;55.00;;;;;;5075478;28;20443;-68
2024/02/24 01:00:34;;;;;;;31.07;29.97;;;21.40;55.00;;;;;;5074952;28;20821;-68
2024/02/24 01:03:01;;;;;;;30.40;29.30;;;21.40;55.00;;;;;;5075309;28;20891;-69
2024/02/24 01:05:28;;;;;;;31.00;29.80;;;21.40;55.00;;;;;;5074992;28;20440;-69
2024/02/24 01:07:56;;;;;;;30.43;29.33;;;21.40;55.00;;;;;;5075637;28;20451;-68
2024/02/24 01:10:23;;;;;;;44.33;42.73;;;21.40;55.00;;;;;;5074617;28;20513;-68
2024/02/24 01:12:50;;;;;;;37.43;36.13;;;21.40;55.00;;;;;;5075056;28;20447;-66
2024/02/24 01:15:19;;;;;;;36.90;35.50;;;21.30;55.00;;;;;;5074934;28;20447;-68
2024/02/24 01:17:45;;;;;;;36.63;35.30;;;21.30;55.00;;;;;;5075128;28;20443;-68
2024/02/24 01:20:13;;;;;;;32.17;30.97;;;21.30;55.00;;;;;;5074521;28;20538;-68
2024/02/24 01:22:39;;;;;;;31.20;30.00;;;21.30;55.00;;;;;;5074606;28;20483;-68
2024/02/24 01:25:07;;;;;;;31.50;30.40;;;21.30;55.00;;;;;;5074863;28;20791;-68
2024/02/24 01:27:34;;;;;;;30.90;29.60;;;21.20;55.00;;;;;;5075954;28;20488;-68
2024/02/24 01:30:00;;;;;;;36.73;35.33;;;21.30;55.10;;;;;;5077186;28;20489;-69
2024/02/24 01:32:28;;;;;;;36.63;35.33;;;21.20;55.00;;;;;;5076243;28;20495;-68
2024/02/24 01:34:55;;;;;;;37.87;36.47;;;21.20;55.60;;;;;;5074991;28;20442;-68
2024/02/24 01:37:23;;;;;;;37.23;35.93;;;21.20;55.00;;;;;;5074754;28;20443;-68
2024/02/24 01:39:50;;;;;;;38.60;37.20;;;21.20;55.00;;;;;;5074437;28;20467;-68
2024/02/24 01:42:16;;;;;;;37.70;36.40;;;21.20;55.00;;;;;;5076136;28;20486;-68
2024/02/24 01:44:43;;;;;;;37.60;36.30;;;21.20;55.00;;;;;;5077546;28;20463;-68
2024/02/24 01:47:10;;;;;;;37.30;36.00;;;21.20;55.00;;;;;;5078097;28;20447;-67
2024/02/24 01:49:40;;;;;;;37.87;36.57;;;21.20;55.10;;;;;;5077304;28;20454;-68
2024/02/24 01:52:07;;;;;;;32.50;31.40;;;21.20;55.20;;;;;;5075373;28;20442;-67
2024/02/24 01:54:35;;;;;;;32.10;31.00;;;21.20;55.20;;;;;;5075043;28;20436;-68
2024/02/24 01:57:02;;;;;;;32.93;31.73;;;21.20;55.20;;;;;;5075534;28;20439;-68
2024/02/24 01:59:29;;;;;;;33.37;32.17;;;21.20;55.20;;;;;;5076706;28;20454;-68
2024/02/24 02:01:56;;;;;;;33.60;32.40;;;21.10;55.00;;;;;;5075955;28;20486;-69
2024/02/24 02:04:23;;;;;;;33.80;32.60;;;21.10;55.00;;;;;;5076924;28;20443;-68
2024/02/24 02:06:51;;;;;;;34.03;32.83;;;21.10;55.00;;;;;;5077778;28;20454;-68
2024/02/24 02:09:18;;;;;;;33.40;32.20;;;21.10;55.00;;;;;;5077690;28;20576;-68
2024/02/24 02:11:45;;;;;;;34.10;32.60;;;21.10;55.00;;;;;;5077158;28;20463;-68
2024/02/24 02:14:12;;;;;;;33.93;32.73;;;21.10;55.10;;;;;;5078651;28;20444;-68
2024/02/24 02:16:39;;;;;;;34.73;33.43;;;21.10;55.10;;;;;;5085651;28;20470;-68
2024/02/24 02:19:06;;;;;;;34.00;32.80;;;21.10;55.10;;;;;;5065898;28;20451;-68
2024/02/24 02:21:34;;;;;;;34.70;33.50;;;21.00;55.00;;;;;;5064252;28;20479;-68
2024/02/24 02:24:02;;;;;;;34.00;32.80;;;21.00;54.90;;;;;;5073110;28;20450;-68
2024/02/24 02:26:29;;;;;;;34.03;32.83;;;21.00;54.90;;;;;;5074320;28;20837;-69
2024/02/24 02:28:55;;;;;;;34.90;33.53;;;21.00;54.90;;;;;;5073926;28;20439;-69
2024/02/24 02:31:22;;;;;;;35.70;34.20;;;21.00;54.90;;;;;;5074081;28;20455;-67
2024/02/24 02:33:49;;;;;;;35.00;33.80;;;21.00;54.90;;;;;;5074360;28;20488;-68
2024/02/24 02:36:15;;;;;;;33.77;32.57;;;21.00;54.90;;;;;;5075643;28;20447;-68
2024/02/24 02:38:42;;;;;;;33.27;32.10;;;20.90;54.80;;;;;;5076547;28;20450;-68
2024/02/24 02:41:10;;;;;;;33.10;32.00;;;21.00;54.90;;;;;;5075260;28;20483;-68
2024/02/24 02:43:37;;;;;;;34.00;32.80;;;21.00;55.00;;;;;;5075725;28;20948;-68
2024/02/24 02:46:04;;;;;;;33.93;32.63;;;21.00;54.90;;;;;;5077264;28;20443;-68
2024/02/24 02:48:31;;;;;;;34.03;32.83;;;20.90;54.70;;;;;;5074946;28;20451;-68
2024/02/24 02:50:57;;;;;;;34.10;32.90;;;20.90;54.70;;;;;;5073695;28;20804;-68
2024/02/24 02:53:24;;;;;;;34.90;33.70;;;20.90;54.70;;;;;;5073262;28;20439;-66
2024/02/24 02:55:51;;;;;;;34.50;33.30;;;20.90;54.70;;;;;;5073597;28;20819;-68
2024/02/24 02:58:19;;;;;;;35.50;34.30;;;20.90;54.60;;;;;;5073760;28;20443;-68
2024/02/24 03:00:47;;;;;;;33.90;32.70;;;20.90;54.60;;;;;;5074186;28;20463;-68
2024/02/24 03:03:13;;;;;;;35.10;33.90;;;20.90;54.60;;;;;;5074690;28;20479;-67
2024/02/24 03:05:40;;;;;;;34.93;33.73;;;20.90;54.60;;;;;;5075138;28;20448;-68
2024/02/24 03:08:07;;;;;;;35.50;34.20;;;20.90;54.60;;;;;;5075173;28;20447;-67
2024/02/24 03:10:34;;;;;;;34.53;33.33;;;20.80;54.60;;;;;;5074018;28;20458;-68
2024/02/24 03:13:01;;;;;;;35.77;34.47;;;20.80;54.60;;;;;;5074678;28;20436;-67
2024/02/24 03:15:29;;;;;;;34.93;33.73;;;20.80;54.60;;;;;;5074730;28;20944;-68
2024/02/24 03:17:56;;;;;;;35.73;34.53;;;20.80;54.50;;;;;;5073171;28;20473;-68
2024/02/24 03:20:22;;;;;;;37.33;36.03;;;20.80;54.50;;;;;;5072129;28;20467;-68
2024/02/24 03:22:49;;;;;;;36.53;35.27;;;20.80;54.50;;;;;;5073021;28;20479;-68
2024/02/24 03:25:16;;;;;;;34.90;33.70;;;20.80;54.40;;;;;;5073075;28;20440;-69
2024/02/24 03:27:42;;;;;;;36.47;35.17;;;20.80;54.40;;;;;;5072627;28;20451;-69
2024/02/24 03:30:10;;;;;;;34.50;33.30;;;20.80;54.40;;;;;;5073254;28;20470;-68
2024/02/24 03:32:38;;;;;;;33.83;32.63;;;20.80;54.40;;;;;;5076564;28;20443;-67
2024/02/24 03:35:06;;;;;;;37.07;35.77;;;20.80;54.50;;;;;;5075156;28;20439;-66
2024/02/24 03:37:32;;;;;;;37.10;35.80;;;20.80;54.50;;;;;;5073467;28;20439;-68
2024/02/24 03:39:59;;;;;;;35.30;34.03;;;20.70;54.30;;;;;;5072014;28;20459;-67
2024/02/24 03:42:26;;;;;;;36.43;35.23;;;20.70;54.30;;;;;;5072717;28;20485;-68
2024/02/24 03:44:53;;;;;;;34.80;33.60;;;20.70;54.30;;;;;;5073910;28;20444;-68
2024/02/24 03:47:19;;;;;;;35.93;34.70;;;20.70;54.30;;;;;;5074251;28;20440;-67
2024/02/24 03:49:47;;;;;;;35.70;34.50;;;20.70;54.20;;;;;;5073907;28;20481;-68
2024/02/24 03:52:14;;;;;;;36.13;34.83;;;20.70;54.20;;;;;;5072798;28;20439;-68
2024/02/24 03:54:41;;;;;;;35.53;34.23;;;20.70;54.10;;;;;;5072962;28;20436;-68
2024/02/24 03:57:08;;;;;;;35.87;34.57;;;20.70;54.10;;;;;;5073462;28;20803;-68
2024/02/24 03:59:34;;;;;;;34.37;33.17;;;20.70;54.20;;;;;;5074795;28;20486;-68
2024/02/24 04:02:01;;;;;;;34.80;33.50;;;20.60;54.10;;;;;;5082942;28;20483;-69
2024/02/24 04:04:28;;;;;;;35.47;34.27;;;20.60;54.00;;;;;;5079815;28;20443;-69
2024/02/24 04:06:56;;;;;;;37.30;36.00;;;20.60;54.00;;;;;;5073239;28;20439;-68
2024/02/24 04:09:23;;;;;;;34.90;33.60;;;20.60;54.00;;;;;;5073242;28;20993;-68
2024/02/24 04:11:52;;;;;;;37.83;36.53;;;20.60;54.00;;;;;;5073481;28;20447;-67
2024/02/24 04:14:18;;;;;;;37.47;36.17;;;20.60;54.00;;;;;;5074371;28;20451;-68
2024/02/24 04:16:45;;;;;;;33.20;32.00;;;20.60;54.00;;;;;;5074255;28;20450;-68
2024/02/24 04:19:12;;;;;;;32.90;31.80;;;20.60;54.00;;;;;;5062273;28;20471;-67
2024/02/24 04:21:39;;;;;;;34.47;33.27;;;20.60;54.00;;;;;;5055175;28;20498;-68
2024/02/24 04:24:08;;;;;;;33.90;32.70;;;20.60;54.00;;;;;;5056783;28;20449;-67
2024/02/24 04:26:35;;;;;;;48.00;46.30;;;20.60;54.00;;;;;;5056443;28;20453;-68
2024/02/24 04:29:02;;;;;;;35.73;34.43;;;20.60;53.90;;;;;;5054948;28;20448;-68
2024/02/24 04:31:29;;;;;;;33.97;32.77;;;20.60;53.90;;;;;;5055418;28;20464;-68
2024/02/24 04:33:56;;;;;;;33.93;32.63;;;20.50;53.90;;;;;;5056374;28;20537;-67
2024/02/24 04:36:23;;;;;;;33.93;32.73;;;20.50;53.90;;;;;;5055783;28;20971;-68
2024/02/24 04:38:49;;;;;;;33.07;31.87;;;20.50;53.90;;;;;;5054497;28;20448;-68
2024/02/24 04:41:18;;;;;;;33.80;32.60;;;20.50;53.90;;;;;;5053306;28;20993;-67
2024/02/24 04:43:44;;;;;;;33.30;32.10;;;20.50;53.90;;;;;;5055784;28;20563;-67
2024/02/24 04:46:11;;;;;;;33.03;31.83;;;20.50;53.90;;;;;;5057806;28;20443;-68
2024/02/24 04:48:38;;;;;;;33.60;32.40;;;20.50;54.00;;;;;;5060076;28;20456;-68
2024/02/24 04:51:05;;;;;;;33.57;32.37;;;20.50;54.00;;;;;;5059069;28;20464;-67
2024/02/24 04:53:31;;;;;;;32.73;31.53;;;20.50;54.00;;;;;;5059817;28;20455;-68
2024/02/24 04:55:58;;;;;;;35.00;33.70;;;20.50;54.00;;;;;;5059663;28;20804;-68
2024/02/24 04:58:27;;;;;;;33.37;32.17;;;20.50;54.00;;;;;;5060283;28;20444;-67
2024/02/24 05:00:53;;;;;;;34.33;33.03;;;20.50;54.00;;;;;;5058883;28;21046;-68
2024/02/24 05:03:20;;;;;;;35.10;33.90;;;20.50;54.10;;;;;;5059329;28;20853;-68
2024/02/24 05:05:47;;;;;;;36.57;35.20;;;20.40;54.10;;;;;;5059537;28;20447;-67
2024/02/24 05:08:13;;;;;;;35.60;34.40;;;20.40;54.00;;;;;;5059034;28;20933;-67
2024/02/24 05:10:40;;;;;;;38.43;37.03;;;20.40;54.00;;;;;;5058354;28;20801;-68
2024/02/24 05:13:07;;;;;;;35.00;33.80;;;20.40;54.00;;;;;;5058859;28;20440;-67
2024/02/24 05:15:35;;;;;;;35.37;34.17;;;20.40;54.10;;;;;;5058513;28;20531;-68
2024/02/24 05:18:02;;;;;;;35.50;34.20;;;20.40;54.10;;;;;;5059539;28;20444;-68
2024/02/24 05:20:30;;;;;;;35.67;34.37;;;20.40;54.20;;;;;;5076344;28;20467;-68
2024/02/24 05:22:57;;;;;;;32.40;31.30;;;20.40;54.20;;;;;;5078245;28;20486;-67
2024/02/24 05:25:24;;;;;;;34.10;32.90;;;20.40;54.10;;;;;;5078765;28;20455;-68
2024/02/24 05:27:51;;;;;;;33.00;31.80;;;20.40;54.10;;;;;;5077621;28;20645;-68
2024/02/24 05:30:18;;;;;;;33.73;32.50;;;20.40;54.10;;;;;;5076518;28;20520;-67
2024/02/24 05:32:46;;;;;;;34.90;33.70;;;20.40;54.10;;;;;;5077798;28;20435;-68
2024/02/24 05:35:13;;;;;;;36.30;35.10;;;20.40;54.20;;;;;;5078248;28;20513;-68
2024/02/24 05:37:39;;;;;;;34.47;33.27;;;20.40;54.20;;;;;;5094735;28;20988;-67
2024/02/24 05:40:07;;;;;;;34.57;33.37;;;20.40;54.30;;;;;;5096674;28;20462;-68
2024/02/24 05:42:34;;;;;;;32.80;31.67;;;20.40;54.50;;;;;;5098077;28;20490;-67
2024/02/24 05:45:01;;;;;;;34.67;33.47;;;20.40;55.10;;;;;;5097759;28;21122;-68
2024/02/24 05:47:28;;;;;;;32.53;31.33;;;20.40;54.60;;;;;;5098099;28;20446;-66
2024/02/24 05:49:56;;;;;;;33.60;32.40;;;20.30;54.50;;;;;;5097377;28;20820;-68
2024/02/24 05:52:23;;;;;;;33.30;32.10;;;20.30;54.60;;;;;;5097536;28;20438;-68
2024/02/24 05:54:50;;;;;;;40.30;38.90;;;20.30;54.70;;;;;;5104793;28;20884;-68
2024/02/24 05:57:16;;;;;;;38.70;37.33;;;20.30;54.80;;;;;;5103701;28;20448;-68
2024/02/24 05:59:43;;;;;;;38.50;37.17;;;20.30;54.80;;;;;;5097044;28;20446;-68
2024/02/24 06:02:10;;;;;;;33.10;31.90;;;20.30;54.80;;;;;;5096669;28;20481;-68
2024/02/24 06:04:38;;;;;;;32.03;30.83;;;20.30;54.90;;;;;;5097364;28;20442;-68
2024/02/24 06:07:06;;;;;;;32.20;31.00;;;20.30;55.00;;;;;;5097494;28;20442;-68
2024/02/24 06:09:32;;;;;;;31.40;30.30;;;20.30;55.00;;;;;;5096857;28;20520;-68
2024/02/24 06:11:59;;;;;;;32.00;30.80;;;20.30;55.00;;;;;;5097660;28;20472;-68
2024/02/24 06:14:26;;;;;;;31.70;30.57;;;20.30;55.10;;;;;;5097795;28;20995;-68
2024/02/24 06:16:53;;;;;;;32.80;31.70;;;20.30;55.10;;;;;;5097522;28;20439;-68
2024/02/24 06:19:19;;;;;;;33.77;32.57;;;20.30;55.20;;;;;;5085255;28;20804;-68
2024/02/24 06:21:46;;;;;;;34.57;33.37;;;20.30;55.20;;;;;;5077275;28;21179;-68
2024/02/24 06:24:14;;;;;;;33.13;32.00;;;20.30;55.30;;;;;;5077225;28;20483;-68
2024/02/24 06:26:41;;;;;;;34.27;33.07;;;20.30;55.30;;;;;;5077720;28;20450;-68
2024/02/24 06:29:08;;;;;;;34.70;32.93;;;20.20;55.40;;;;;;5076451;28;20453;-68
2024/02/24 06:31:45;;;;;;;35.73;34.33;;;20.30;56.20;;;;;;5073436;28;21045;-71
2024/02/24 06:34:22;;;;;;;31.10;30.00;;;20.30;57.70;;;;;;5074060;28;20445;-69
2024/02/24 06:36:58;;;;;;;33.53;31.50;;;20.30;58.10;;;;;;5072387;28;20451;-70
2024/02/24 06:39:29;;;;;;;32.80;31.60;;;20.30;58.70;;;;;;5071781;28;20864;-69
2024/02/24 06:41:56;;;;;;;33.20;31.77;;;20.30;59.10;;;;;;5072726;28;20802;-70
2024/02/24 06:44:23;;;;;;;32.93;31.20;;;20.30;59.30;;;;;;5071962;28;21007;-66
2024/02/24 06:46:50;;;;;;;32.77;31.10;;;20.40;61.50;;;;;;5072323;28;20443;-67
2024/02/24 06:49:16;;;;;;;34.03;32.73;;;20.40;62.60;;;;;;5071634;28;20448;-67
2024/02/24 06:51:43;;;;;;;29.17;27.97;;;20.40;62.40;;;;;;5072098;28;20459;-66
2024/02/24 06:54:10;;;;;;;29.80;28.70;;;20.40;62.30;;;;;;5072685;28;20431;-69
2024/02/24 06:56:38;;;;;;;32.23;30.30;;;20.40;61.60;;;;;;5072358;28;20447;-69
2024/02/24 06:59:06;;;;;;;30.97;29.63;;;20.40;61.30;;;;;;5072206;28;20819;-69
2024/02/24 07:01:33;;;;;;;32.60;31.30;;;20.50;61.10;;;;;;5072250;28;20528;-69
2024/02/24 07:04:00;;;;;;;31.33;30.13;;;20.50;61.00;;;;;;5071917;28;20896;-69
2024/02/24 07:06:27;;;;;;;31.47;30.27;;;20.50;60.50;;;;;;5071985;28;20439;-68
2024/02/24 07:08:53;;;;;;;32.87;31.37;;;20.50;60.50;;;;;;5071648;28;20513;-67
2024/02/24 07:11:20;;;;;;;35.67;33.97;;;20.50;60.40;;;;;;5072135;28;20455;-69
2024/02/24 07:13:48;;;;;;;32.70;31.40;;;20.50;60.40;;;;;;5071947;28;20439;-68
2024/02/24 07:16:15;;;;;;;33.70;32.30;;;20.60;60.40;;;;;;5071817;28;20447;-69
2024/02/24 07:18:42;;;;;;;34.40;32.00;;;20.60;60.30;;;;;;5071786;28;20442;-68
2024/02/24 07:21:09;;;;;;;37.00;35.40;;;20.60;60.30;;;;;;5070748;28;20460;-66
2024/02/24 07:23:36;;;;;;;37.17;35.47;;;20.60;60.60;;;;;;5071631;28;20995;-66
2024/02/24 07:26:04;;;;;;;38.03;36.10;;;20.60;61.90;;;;;;5071736;28;20446;-66
2024/02/24 07:28:32;;;;;;;34.60;32.87;;;20.60;61.60;;;;;;5071682;28;20553;-66
2024/02/24 07:31:01;;;;;;;37.20;35.60;;;20.70;61.50;;;;;;5071298;28;20827;-67
2024/02/24 07:33:28;;;;;;;37.10;35.40;;;20.70;61.70;;;;;;5071470;28;20446;-68
2024/02/24 07:35:55;;;;;;;37.27;35.77;;;20.70;61.50;;;;;;5071771;28;20463;-68
2024/02/24 07:38:22;;;;;;;35.20;33.90;;;20.70;60.80;;;;;;5071592;28;20447;-67
2024/02/24 07:40:48;;;;;;;36.00;34.50;;;20.80;60.50;;;;;;5071062;28;20835;-68
2024/02/24 07:43:16;;;;;;;35.47;33.90;;;20.80;60.00;;;;;;5071425;28;20486;-68
2024/02/24 07:45:43;;;;;;;36.73;35.13;;;20.80;59.80;;;;;;5071533;28;20443;-68
2024/02/24 07:48:11;;;;;;;37.13;35.23;;;20.80;59.60;;;;;;5071414;28;20451;-65
2024/02/24 07:50:40;;;;;;;35.60;34.00;;;20.80;59.10;;;;;;5094687;28;20449;-64
2024/02/24 07:53:07;;;;;;;35.70;33.93;;;20.80;59.10;;;;;;5096550;28;20424;-66
2024/02/24 07:56:03;;;;;;;36.20;34.60;;;20.80;59.00;;;;;;5097228;28;20431;-64
2024/02/24 07:58:31;;;;;;;35.87;33.63;;;20.80;58.80;;;;;;5094317;28;20445;-66
2024/02/24 08:01:00;;;;;;;35.97;34.60;;;20.80;58.70;;;;;;5092831;28;21034;-68
2024/02/24 08:03:28;;;;;;;39.23;37.43;;;20.80;58.70;;;;;;5083625;28;20510;-67
2024/02/24 08:05:54;;;;;;;37.90;36.40;;;20.80;58.60;;;;;;5086944;28;20527;-67
2024/02/24 08:08:37;;;;;;;36.67;35.30;;;20.80;58.30;;;;;;5089584;28;20519;-65
2024/02/24 08:11:05;;;;;;;35.70;34.30;;;20.80;57.50;;;;;;5081635;28;20475;-66
2024/02/24 08:13:32;;;;;;;37.13;35.40;;;20.80;57.10;;;;;;5078560;28;20440;-67
2024/02/24 08:16:04;;;;;;;35.00;33.60;;;20.80;56.50;;;;;;5084141;28;20458;-66
2024/02/24 08:18:32;;;;;;;36.03;34.43;;;20.80;55.00;;;;;;5077399;28;20497;-65
2024/02/24 08:20:59;;;;;;;33.90;32.50;;;20.80;54.10;;;;;;5071933;28;20605;-65
2024/02/24 08:23:26;;;;;;;35.00;33.50;;;20.70;53.30;;;;;;5074976;28;20487;-68
2024/02/24 08:25:53;;;;;;;35.37;34.07;;;20.70;52.80;;;;;;5074970;28;20442;-68
2024/02/24 08:28:19;;;;;;;39.30;37.70;;;20.70;53.50;;;;;;5074927;28;20936;-68
2024/02/24 08:30:46;;;;;;;34.92;33.53;;;20.70;54.10;;;;;;5074078;28;20438;-68
2024/02/24 08:33:13;;;;;;;39.03;36.70;;;20.70;54.20;;;;;;5075017;28;20212;-70
2024/02/24 08:35:43;;;;;;;40.90;38.57;;;20.80;54.60;;;;;;5074947;28;20815;-69
2024/02/24 08:38:10;;;;;;;45.17;42.40;;;20.80;54.60;;;;;;5074746;28;20453;-69
2024/02/24 08:40:36;;;;;;;47.27;43.77;;;20.80;54.70;;;;;;5074362;28;20454;-68
2024/02/24 08:43:04;;;;;;;54.10;48.90;;;20.90;54.90;;;;;;5075010;28;20870;-67
2024/02/24 08:45:30;;;;;;;51.83;46.77;;;20.90;55.10;;;;;;5074640;28;20453;-68
2024/02/24 08:47:57;;;;;;;47.90;43.97;;;20.90;55.30;;;;;;5074596;28;20462;-68
2024/02/24 08:50:24;;;;;;;47.63;43.60;;;20.90;55.30;;;;;;5074027;28;20498;-68
2024/02/24 08:52:52;;;;;;;45.37;41.93;;;20.90;55.30;;;;;;5074540;28;20446;-66
2024/02/24 08:55:19;;;;;;;45.00;41.90;;;20.90;55.50;;;;;;5075688;28;20466;-65
2024/02/24 08:57:46;;;;;;;43.80;40.50;;;20.90;55.20;;;;;;5074306;28;20450;-68
2024/02/24 09:00:13;;;;;;;46.23;42.97;;;20.90;55.00;;;;;;5073955;28;20469;-72
2024/02/24 09:02:40;;;;;;;43.40;40.60;;;20.90;55.10;;;;;;5076129;28;20443;-67
2024/02/24 09:05:07;;;;;;;44.00;41.50;;;20.90;55.20;;;;;;5074165;28;20486;-67
2024/02/24 09:07:34;;;;;;;45.13;42.37;;;20.90;55.20;;;;;;5074216;28;20920;-67
2024/02/24 09:10:03;;;;;;;44.10;41.53;;;20.90;55.20;;;;;;5073865;28;20467;-71
2024/02/24 09:12:30;;;;;;;43.10;40.60;;;20.90;55.80;;;;;;5074110;28;20447;-69
2024/02/24 09:14:56;;;;;;;39.67;37.57;;;20.90;56.60;;;;;;5074273;28;20917;-68
2024/02/24 09:17:23;;;;;;;42.90;40.50;;;20.90;55.90;;;;;;5074324;28;20443;-69
2024/02/24 09:19:50;;;;;;;46.07;43.73;;;20.90;55.40;;;;;;5090555;28;20831;-69
2024/02/24 09:22:17;;;;;;;42.00;39.83;;;20.90;55.80;;;;;;5095167;28;20442;-66
2024/02/24 09:24:43;;;;;;;45.70;42.97;;;20.90;57.40;;;;;;5094370;28;20474;-65
2024/02/24 09:27:12;;;;;;;41.70;39.53;;;21.00;56.90;;;;;;5095309;28;20442;-72
2024/02/24 09:29:39;;;;;;;46.20;42.40;;;20.90;57.00;;;;;;5094745;28;20491;-70
2024/02/24 09:32:06;;;;;;;42.57;39.97;;;20.90;57.80;;;;;;5095065;28;20446;-72
2024/02/24 09:34:33;;;;;;;40.70;38.80;;;21.00;58.50;;;;;;5094562;28;20474;-72
2024/02/24 09:37:03;;;;;;;42.50;40.07;;;21.00;58.50;;;;;;5095850;28;20815;-71
2024/02/24 09:39:30;;;;;;;40.90;38.97;;;21.00;58.50;;;;;;5094642;28;20927;-71
2024/02/24 09:41:59;;;;;;;40.60;38.80;;;21.00;58.50;;;;;;5095406;28;20444;-71
2024/02/24 09:44:29;;;;;;;42.30;40.20;;;21.00;58.60;;;;;;5095144;28;21020;-72
2024/02/24 09:46:58;;;;;;;42.30;40.50;;;21.00;58.90;;;;;;5099235;28;20499;-77
2024/02/24 09:49:28;;;;;;;41.87;39.60;;;21.00;59.30;;;;;;5104429;28;20441;-69
2024/02/24 09:51:55;;;;;;;41.30;39.20;;;21.00;59.20;;;;;;5101313;28;20995;-68
2024/02/24 09:54:21;;;;;;;43.70;41.70;;;21.10;59.10;;;;;;5093879;28;20434;-70
2024/02/24 09:56:52;;;;;;;42.97;40.70;;;21.10;59.10;;;;;;5093545;28;20446;-70
2024/02/24 09:59:21;;;;;;;39.90;38.10;;;21.10;59.00;;;;;;5093169;28;20447;-70
2024/02/24 10:01:50;;;;;;;42.00;40.00;;;21.10;58.80;;;;;;5093530;28;20461;-69
2024/02/24 10:04:18;;;;;;;42.97;40.77;;;21.10;59.00;;;;;;5093436;28;20482;-69
2024/02/24 10:06:45;;;;;;;42.80;40.80;;;21.10;59.00;;;;;;5093352;28;20449;-70
2024/02/24 10:09:12;;;;;;;42.37;40.37;;;21.20;58.90;;;;;;5092830;28;20446;-69
2024/02/24 10:11:40;;;;;;;41.60;39.70;;;21.20;59.00;;;;;;5093262;28;20850;-71
2024/02/24 10:14:07;;;;;;;43.80;41.63;;;21.20;59.10;;;;;;5093232;28;20537;-66
2024/02/24 10:16:36;;;;;;;42.27;40.23;;;21.20;58.40;;;;;;5093303;28;20521;-66
2024/02/24 10:19:06;;;;;;;40.10;38.10;;;21.20;58.20;;;;;;5082756;28;20439;-66
2024/02/24 10:21:33;;;;;;;38.17;36.30;;;21.20;57.90;;;;;;5073039;28;20807;-66
2024/02/24 10:23:59;;;;;;;41.20;39.40;;;21.20;57.80;;;;;;5072732;28;20483;-66
2024/02/24 10:26:25;;;;;;;41.90;40.10;;;21.30;57.90;;;;;;5072819;28;20447;-69
2024/02/24 10:28:54;;;;;;;44.03;41.83;;;21.30;57.90;;;;;;5072791;28;20295;-70
2024/02/24 10:31:23;;;;;;;41.30;39.47;;;21.30;58.80;;;;;;5072261;28;20513;-70
2024/02/24 10:33:51;;;;;;;43.40;41.30;;;21.30;58.80;;;;;;5072456;28;20455;-70
2024/02/24 10:36:20;;;;;;;42.77;40.97;;;21.30;59.00;;;;;;5072638;28;20444;-69
2024/02/24 10:38:50;;;;;;;42.47;40.67;;;21.30;59.10;;;;;;5073237;28;20475;-72
2024/02/24 10:41:18;;;;;;;39.53;37.83;;;21.40;59.90;;;;;;5073690;28;20481;-71
2024/02/24 10:43:48;;;;;;;44.77;42.33;;;21.40;60.00;;;;;;5072228;28;20479;-71
2024/02/24 10:46:15;;;;;;;39.70;37.73;;;21.40;59.80;;;;;;5072492;28;20471;-72
2024/02/24 10:48:42;;;;;;;41.47;39.67;;;21.40;59.70;;;;;;5073116;28;21016;-72
2024/02/24 10:51:12;;;;;;;40.93;39.33;;;21.40;59.50;;;;;;5072185;28;20467;-68
2024/02/24 10:53:44;;;;;;;41.00;39.10;;;21.50;59.70;;;;;;5072465;28;20436;-68
2024/02/24 10:56:16;;;;;;;40.30;38.40;;;21.40;59.80;;;;;;5072138;28;20443;-68
2024/02/24 10:58:43;;;;;;;41.47;39.67;;;21.40;59.70;;;;;;5072010;28;20856;-71
2024/02/24 11:01:10;;;;;;;41.23;39.53;;;21.40;59.50;;;;;;5071657;28;20506;-67
2024/02/24 11:03:37;;;;;;;42.50;40.70;;;21.50;60.40;;;;;;5071840;28;20443;-68
2024/02/24 11:06:04;;;;;;;41.70;39.70;;;21.50;60.30;;;;;;5072003;28;20451;-67
2024/02/24 11:08:36;;;;;;;38.60;36.90;;;21.50;59.90;;;;;;5071819;28;20439;-69
2024/02/24 11:11:09;;;;;;;34.40;32.90;;;21.50;59.60;;;;;;5070408;28;20436;-70
2024/02/24 11:13:37;;;;;;;39.97;38.17;;;21.50;60.20;;;;;;5071885;28;20212;-69
2024/02/24 11:16:05;;;;;;;40.10;38.10;;;21.60;60.50;;;;;;5071937;28;20478;-67
2024/02/24 11:18:54;;;;;;;41.07;39.20;;;21.70;60.10;;;;;;5071659;28;20440;-67
2024/02/24 11:21:22;;;;;;;46.03;44.13;;;21.70;60.20;;;;;;5071295;28;20463;-68
2024/02/24 11:23:49;;;;;;;46.80;44.80;;;21.70;59.80;;;;;;5071728;28;20519;-68
2024/02/24 11:26:31;;;;;;;45.00;43.00;;;21.70;59.90;;;;;;5071795;28;20542;-66
2024/02/24 11:29:02;;;;;;;41.40;39.70;;;21.70;60.20;;;;;;5071965;28;20447;-68
2024/02/24 11:31:32;;;;;;;41.47;39.83;;;21.70;60.70;;;;;;5075524;28;20468;-68
2024/02/24 11:33:59;;;;;;;38.30;36.70;;;21.70;60.30;;;;;;5075095;28;20447;-67
2024/02/24 11:36:26;;;;;;;41.27;39.53;;;21.70;60.80;;;;;;5071694;28;20467;-68
2024/02/24 11:38:53;;;;;;;37.53;35.93;;;21.70;61.30;;;;;;5071517;28;20443;-68
2024/02/24 11:41:22;;;;;;;41.50;39.20;;;21.70;62.10;;;;;;5071132;28;20451;-67
2024/02/24 11:43:51;;;;;;;42.20;40.40;;;21.80;62.20;;;;;;5071610;28;20553;-73
2024/02/24 11:46:17;;;;;;;35.93;34.53;;;21.80;61.50;;;;;;5071600;28;20447;-74
2024/02/24 11:48:44;;;;;;;37.70;36.20;;;21.80;60.90;;;;;;5071318;28;20447;-74
2024/02/24 11:51:11;;;;;;;36.60;35.00;;;21.80;61.50;;;;;;5071056;28;20463;-72
2024/02/24 11:53:38;;;;;;;38.70;37.20;;;21.80;62.00;;;;;;5071351;28;20466;-72
2024/02/24 11:56:06;;;;;;;36.60;35.20;;;21.80;62.00;;;;;;5074503;28;20474;-72
2024/02/24 11:58:33;;;;;;;36.07;34.67;;;21.80;62.00;;;;;;5075579;28;20485;-71
2024/02/24 12:01:04;;;;;;;40.40;38.60;;;21.80;61.60;;;;;;5074910;28;20482;-73
2024/02/24 12:03:31;;;;;;;40.03;38.20;;;21.80;61.70;;;;;;5075365;28;20501;-71
2024/02/24 12:06:03;;;;;;;36.83;35.33;;;21.80;62.00;;;;;;5075332;28;20908;-71
2024/02/24 12:08:31;;;;;;;39.27;37.07;;;21.80;61.60;;;;;;5075439;28;20501;-73
2024/02/24 12:10:58;;;;;;;41.50;39.90;;;21.80;61.10;;;;;;5074695;28;20462;-73
2024/02/24 12:13:26;;;;;;;36.87;35.17;;;21.90;61.50;;;;;;5076310;28;20450;-73
2024/02/24 12:15:53;;;;;;;37.23;35.67;;;21.80;61.70;;;;;;5075266;28;20446;-73
2024/02/24 12:18:23;;;;;;;40.60;39.00;;;21.90;61.80;;;;;;5079485;28;20438;-71
2024/02/24 12:20:49;;;;;;;36.60;35.20;;;21.90;61.70;;;;;;5095025;28;20458;-70
2024/02/24 12:23:17;;;;;;;30.00;28.80;;;21.90;61.90;;;;;;5095488;28;20442;-70
2024/02/24 12:25:45;;;;;;;28.53;27.53;;;21.90;61.10;;;;;;5095514;28;20477;-73
2024/02/24 12:28:12;;;;;;;29.03;27.90;;;21.90;61.70;;;;;;5096363;28;20469;-71
2024/02/24 12:30:42;;;;;;;29.60;28.50;;;21.90;61.80;;;;;;5095594;28;20471;-72